Latest Weather Observations for Pallamana

IDS60901

Issued at 2:41 pm CST Tuesday 30 June 2015 (issued every 10 minutes, with the page automatically refreshed every 10 minutes)

About weather observations | Map of Adelaide area stations | Latest observations for Adelaide area | Other Formats
Station Details ID: 024584 Name: PALLAMANA AERODROME Lat: -35.06 Lon: 139.23 Height: 45.0 m
Data from the previous 72 hours. | See also: Recent months at Pallamana
Date/Time
CST
Tmp

°C
App
Tmp
°C
Dew
Point
°C
Rel
Hum
%
Delta-T

°C
Wind Press
QNH
hPa
Press
MSL
hPa
Rain
since
9 am
mm
Dir
 
Spd
km/h
Gust
km/h
Spd
kts
Gust
kts
30/02:30pm 14.0 9.5 2.0 44 5.2 SSW 15 20 8 11 1029.1 1029.2 0.0
30/02:00pm 14.3 10.2 2.5 45 5.2 SW 13 19 7 10 1029.0 1029.1 0.0
30/01:30pm 14.1 10.0 2.5 45 5.1 SSW 13 19 7 10 1029.1 1029.2 0.0
30/01:00pm 14.3 11.0 2.5 45 5.2 W 9 15 5 8 1029.5 1029.6 0.0
30/12:30pm 14.2 10.9 2.6 45 5.1 SSW 9 15 5 8 1029.8 1029.9 0.0
30/12:00pm 14.1 11.3 3.1 47 4.9 WSW 7 17 4 9 1030.3 1030.4 0.0
30/11:30am 13.9 10.6 2.2 45 5.1 WSW 9 13 5 7 1030.8 1030.9 0.0
30/11:00am 13.4 9.9 3.3 50 4.5 WSW 11 15 6 8 1031.1 1031.2 0.0
30/10:30am 13.2 9.3 5.2 58 3.7 WSW 15 19 8 10 1031.3 1031.4 0.0
30/10:00am 12.7 9.6 5.6 62 3.3 WSW 11 15 6 8 1031.3 1031.4 0.0
30/09:30am 12.2 10.1 6.5 68 2.7 WSW 7 11 4 6 1031.0 1031.1 0.0
30/09:00am 11.2 10.6 7.2 76 1.9 CALM 0 6 0 3 1030.7 1030.8 0.0
30/08:30am 9.3 8.5 6.7 84 1.2 CALM 0 0 0 0 1030.5 1030.6 0.0
30/08:00am 9.0 6.4 6.2 82 1.3 NW 9 11 5 6 1030.3 1030.4 0.0
30/07:30am 9.6 7.0 5.9 78 1.7 W 9 13 5 7 1030.3 1030.4 0.0
30/07:00am 9.5 6.8 5.8 78 1.7 W 9 11 5 6 1029.9 1030.0 0.0
30/06:30am 9.3 6.6 5.8 79 1.6 W 9 11 5 6 1029.8 1029.9 0.0
30/06:00am 8.7 7.9 6.5 86 1.0 CALM 0 0 0 0 1029.4 1029.5 0.0
30/05:30am 8.6 7.4 6.6 87 0.9 W 2 6 1 3 1029.4 1029.5 0.0
30/05:00am 8.7 6.8 6.5 86 1.0 W 6 9 3 5 1029.3 1029.4 0.0
30/04:30am 8.7 6.6 6.5 86 1.0 WNW 7 9 4 5 1029.2 1029.3 0.0
30/04:00am 8.5 6.6 6.5 87 0.9 NW 6 11 3 6 1029.0 1029.1 0.0
30/03:30am 8.8 6.6 6.4 85 1.1 NW 7 9 4 5 1029.2 1029.3 0.0
30/03:00am 8.6 7.7 6.2 85 1.1 CALM 0 0 0 0 1029.2 1029.3 0.0
30/02:30am 9.1 8.2 6.0 81 1.4 CALM 0 0 0 0 1029.2 1029.3 0.0
30/02:00am 9.0 6.9 5.9 81 1.4 ENE 6 9 3 5 1029.5 1029.6 0.0
30/01:30am 9.0 7.8 6.6 85 1.1 E 2 7 1 4 1029.5 1029.6 0.0
30/01:00am 9.7 7.5 5.5 75 1.9 NW 6 7 3 4 1029.6 1029.7 0.0
30/12:30am 9.3 7.3 6.2 81 1.4 NW 6 7 3 4 1030.0 1030.1 0.0
30/12:00am 9.4 7.1 5.9 79 1.6 NW 7 9 4 5 1030.3 1030.4 0.0
 
Date/Time
CST
Tmp

°C
App
Tmp
°C
Dew
Point
°C
Rel
Hum
%
Delta-T

°C
Wind Press
QNH
hPa
Press
MSL
hPa
Rain
since
9 am
mm
Dir
 
Spd
km/h
Gust
km/h
Spd
kts
Gust
kts
29/11:30pm 9.3 7.0 5.8 79 1.6 NNW 7 9 4 5 1030.4 1030.5 0.0
29/11:00pm 9.5 6.9 6.2 80 1.5 N 9 11 5 6 1030.4 1030.5 0.0
29/10:30pm 9.9 9.1 6.4 79 1.6 CALM 0 0 0 0 1030.4 1030.5 0.0
29/10:00pm 9.7 8.9 6.5 80 1.5 CALM 0 0 0 0 1030.5 1030.6 0.0
29/09:30pm 10.0 8.0 6.1 77 1.8 WSW 6 9 3 5 1030.8 1030.9 0.0
29/09:00pm 10.2 8.9 6.1 76 1.9 WSW 2 6 1 3 1030.9 1031.0 0.0
29/08:30pm 10.0 9.0 5.8 75 1.9 CALM 0 0 0 0 1030.8 1030.9 0.0
29/08:00pm 10.7 9.7 5.4 70 2.4 CALM 0 0 0 0 1030.9 1031.0 0.0
29/07:30pm 10.5 9.3 4.7 67 2.6 CALM 0 0 0 0 1030.9 1031.0 0.0
29/07:00pm 11.0 9.9 5.3 68 2.6 CALM 0 0 0 0 1030.7 1030.8 0.0
29/06:30pm 11.8 9.4 4.5 61 3.3 WNW 6 9 3 5 1030.4 1030.5 0.0
29/06:00pm 11.7 10.7 5.6 66 2.8 CALM 0 0 0 0 1030.3 1030.4 0.0
29/05:30pm 11.5 8.9 4.3 61 3.2 N 7 11 4 6 1030.2 1030.3 0.0
29/05:00pm 12.2 9.7 3.9 57 3.7 NNW 6 7 3 4 1030.0 1030.1 0.0
29/04:30pm 12.7 10.1 4.3 56 3.8 N 7 9 4 5 1030.2 1030.3 0.0
29/04:00pm 13.3 9.9 1.9 46 4.9 N 9 11 5 6 1030.2 1030.3 0.0
29/03:30pm 13.7 10.7 1.9 44 5.1 N 7 9 4 5 1030.3 1030.4 0.0
29/03:00pm 13.8 10.1 2.4 46 5.0 NNE 11 15 6 8 1030.5 1030.6 0.0
29/02:30pm 14.1 10.6 1.2 41 5.5 NNE 9 13 5 7 1030.6 1030.7 0.0
29/02:00pm 14.2 10.4 1.7 42 5.4 NNE 11 13 6 7 1030.9 1031.0 0.0
29/01:30pm 14.3 11.6 2.5 45 5.2 N 6 9 3 5 1031.2 1031.3 0.0
29/01:00pm 14.0 11.0 2.3 45 5.2 NNE 7 11 4 6 1031.6 1031.7 0.0
29/12:30pm 13.9 10.7 3.1 48 4.8 N 9 13 5 7 1032.2 1032.3 0.0
29/12:00pm 13.7 10.3 4.0 52 4.4 NNW 11 13 6 7 1032.7 1032.8 0.0
29/11:30am 13.3 10.3 4.2 54 4.1 NNW 9 11 5 6 1033.1 1033.2 0.0
29/11:00am 12.7 10.8 5.1 60 3.5 N 4 6 2 3 1033.4 1033.5 0.0
29/10:30am 12.1 10.7 5.3 63 3.1 NNW 2 7 1 4 1033.8 1033.9 0.0
29/10:00am 11.2 10.7 7.7 79 1.7 CALM 0 0 0 0 1033.8 1033.9 0.0
29/09:30am 10.3 9.8 8.0 86 1.1 CALM 0 0 0 0 1033.8 1033.9 0.0
29/09:00am 9.6 9.1 7.7 88 0.9 CALM 0 0 0 0 1033.7 1033.8 0.0
29/08:30am 9.0 8.4 7.3 89 0.8 CALM 0 0 0 0 1033.5 1033.6 0.0
29/08:00am 8.4 7.6 6.7 89 0.8 CALM 0 0 0 0 1033.4 1033.5 0.0
29/07:30am 8.6 7.8 6.4 86 1.0 CALM 0 0 0 0 1033.2 1033.3 0.0
29/07:00am 8.3 7.5 6.3 87 0.9 CALM 0 0 0 0 1033.0 1033.1 0.0
29/06:30am 8.3 7.5 6.3 87 0.9 CALM 0 0 0 0 1032.8 1032.9 0.0
29/06:00am 7.9 7.0 6.1 88 0.8 CALM 0 0 0 0 1032.6 1032.7 0.0
29/05:30am 8.0 7.1 6.2 88 0.8 CALM 0 0 0 0 1032.5 1032.6 0.0
29/05:00am 8.1 7.3 6.3 88 0.8 CALM 0 0 0 0 1032.4 1032.5 0.0
29/04:30am 8.1 7.2 6.1 87 0.9 CALM 0 0 0 0 1032.6 1032.7 0.0
29/04:00am 7.8 6.9 6.0 88 0.8 CALM 0 0 0 0 1032.9 1033.0 0.0
29/03:30am 7.7 6.8 5.9 88 0.8 CALM 0 0 0 0 1033.0 1033.1 0.0
29/03:00am 7.9 6.9 5.7 86 1.0 CALM 0 0 0 0 1033.1 1033.2 0.0
29/02:30am 8.3 7.4 5.9 85 1.1 CALM 0 0 0 0 1033.1 1033.2 0.0
29/02:00am 8.4 7.4 5.7 83 1.2 CALM 0 0 0 0 1033.2 1033.3 0.0
29/01:30am 8.2 6.1 5.7 84 1.1 NW 6 7 3 4 1033.3 1033.4 0.0
29/01:00am 8.5 6.4 5.8 83 1.2 W 6 9 3 5 1033.4 1033.5 0.0
29/12:30am 8.5 6.4 5.6 82 1.3 W 6 9 3 5 1033.7 1033.8 0.0
29/12:00am 8.6 7.7 5.9 83 1.2 CALM 0 0 0 0 1034.0 1034.1 0.0
 
Date/Time
CST
Tmp

°C
App
Tmp
°C
Dew
Point
°C
Rel
Hum
%
Delta-T

°C
Wind Press
QNH
hPa
Press
MSL
hPa
Rain
since
9 am
mm
Dir
 
Spd
km/h
Gust
km/h
Spd
kts
Gust
kts
28/11:30pm 8.2 5.9 5.7 84 1.1 NNW 7 7 4 4 1034.3 1034.3 0.0
28/11:00pm 8.1 5.7 5.4 83 1.2 NNW 7 9 4 5 1034.3 1034.3 0.0
28/10:30pm 8.5 7.1 5.4 81 1.4 SSW 2 6 1 3 1034.4 1034.4 0.0
28/10:00pm 8.3 6.1 5.1 80 1.4 SSW 6 9 3 5 1034.4 1034.4 0.0
28/09:30pm 8.3 5.5 5.1 80 1.4 SSW 9 11 5 6 1034.5 1034.5 0.0
28/09:00pm 8.6 7.5 5.2 79 1.5 CALM 0 0 0 0 1034.1 1034.2 0.0
28/08:30pm 9.0 6.6 5.2 77 1.7 SW 7 9 4 5 1034.0 1034.1 0.0
28/08:00pm 8.4 6.1 5.5 82 1.3 N 7 9 4 5 1034.0 1034.1 0.0
28/07:30pm 8.4 6.0 5.2 80 1.4 WNW 7 9 4 5 1034.0 1034.1 0.0
28/07:00pm 7.4 5.8 4.4 81 1.3 W 2 6 1 3 1034.1 1034.2 0.0
28/06:30pm 8.7 6.5 5.1 78 1.6 NW 6 9 3 5 1033.9 1034.0 0.0
28/06:00pm 9.8 8.5 4.3 68 2.4 CALM 0 0 0 0 1033.7 1033.8 0.0
28/05:30pm 10.5 9.4 4.9 68 2.5 CALM 0 0 0 0 1033.3 1033.4 0.0
28/05:00pm 12.7 10.3 4.3 56 3.8 N 6 7 3 4 1033.2 1033.3 0.0
28/04:30pm 14.4 12.0 4.1 50 4.7 N 6 9 3 5 1033.3 1033.4 0.0
28/04:00pm 15.0 12.3 3.8 47 5.1 N 7 11 4 6 1033.4 1033.5 0.0
28/03:30pm 14.8 11.4 3.8 47 5.0 NE 11 15 6 8 1033.3 1033.4 0.0
28/03:00pm 15.4 12.0 3.8 46 5.3 N 11 17 6 9 1033.4 1033.5 0.0
28/02:30pm 14.4 10.9 3.5 48 4.9 ENE 11 17 6 9 1033.5 1033.6 0.0
28/02:00pm 15.0 11.9 3.5 46 5.2 ENE 9 17 5 9 1033.7 1033.8 0.0
28/01:30pm 15.4 11.6 4.1 47 5.2 N 13 20 7 11 1033.8 1033.9 0.0
28/01:00pm 15.0 10.4 3.8 47 5.1 N 17 22 9 12 1034.1 1034.2 0.0
28/12:30pm 14.5 9.6 3.9 49 4.8 NNE 19 26 10 14 1034.5 1034.5 0.0
28/12:00pm 14.8 9.9 4.3 49 4.8 NNE 19 26 10 14 1035.0 1035.0 0.0
28/11:30am 14.3 9.8 6.3 58 3.8 N 19 24 10 13 1035.4 1035.4 0.0
28/11:00am 13.7 9.3 6.6 62 3.4 N 19 24 10 13 1035.6 1035.6 0.0
28/10:30am 12.9 8.6 6.8 66 2.9 N 19 22 10 12 1035.9 1035.9 0.0
28/10:00am 12.0 8.5 7.4 73 2.2 N 15 19 8 10 1035.9 1035.9 0.0
28/09:30am 10.4 7.3 7.2 80 1.5 N 13 19 7 10 1035.8 1035.8 0.0
28/09:00am 8.2 6.2 6.2 87 0.9 NNE 6 9 3 5 1035.6 1035.6 0.0
28/08:30am 6.4 3.9 5.0 91 0.6 NNW 7 9 4 5 1035.6 1035.6 0.0
28/08:00am 4.8 1.4 3.8 93 0.4 N 11 13 6 7 1035.4 1035.4 0.0
28/07:30am 4.5 1.9 4.0 97 0.2 NNW 7 9 4 5 1035.1 1035.1 0.0
28/07:00am 4.3 2.9 3.6 95 0.3 CALM 0 0 0 0 1034.8 1034.8 0.0
28/06:30am 4.5 1.8 3.8 95 0.3 N 7 9 4 5 1034.4 1034.4 0.0
28/06:00am 4.4 1.7 3.7 95 0.3 NNW 7 9 4 5 1034.3 1034.3 0.0
28/05:30am 4.2 1.1 3.5 95 0.3 NNW 9 9 5 5 1034.0 1034.1 0.0
28/05:00am 3.1 0.3 2.1 93 0.4 N 6 7 3 4 1033.8 1033.9 0.0
28/04:30am 0.8 -1.2 0.0 94 0.3 CALM 0 0 0 0 1033.6 1033.7 0.0
28/04:00am 3.7 1.1 3.0 95 0.3 NNW 6 7 3 4 1033.5 1033.6 0.0
28/03:30am 2.4 0.7 2.1 98 0.1 CALM 0 6 0 3 1033.7 1033.8 0.0
28/03:00am 4.7 2.1 4.0 95 0.3 NNW 7 9 4 5 1033.7 1033.8 0.0
28/02:30am 4.7 2.9 3.5 92 0.5 W 2 6 1 3 1033.9 1034.0 0.0
28/02:00am 5.3 2.0 4.4 94 0.4 NNW 11 15 6 8 1033.8 1033.9 0.0
28/01:30am 6.1 5.0 4.9 92 0.5 CALM 0 0 0 0 1033.8 1033.9 0.0
28/01:00am 6.0 4.8 4.8 92 0.5 CALM 0 0 0 0 1033.8 1033.9 0.0
28/12:30am 5.2 3.1 4.0 92 0.5 SSW 4 6 2 3 1033.9 1034.0 0.0
28/12:00am 4.8 2.3 3.8 93 0.4 SW 6 9 3 5 1033.9 1034.0 0.0
 
Date/Time
CST
Tmp

°C
App
Tmp
°C
Dew
Point
°C
Rel
Hum
%
Delta-T

°C
Wind Press
QNH
hPa
Press
MSL
hPa
Rain
since
9 am
mm
Dir
 
Spd
km/h
Gust
km/h
Spd
kts
Gust
kts
27/11:30pm 4.7 2.0 3.5 92 0.5 NW 7 9 4 5 1033.9 1034.0 0.0
27/11:00pm 4.5 2.6 3.0 90 0.6 SSW 2 7 1 4 1034.0 1034.1 0.0
27/10:30pm 5.2 2.7 4.7 97 0.2 W 7 9 4 5 1034.0 1034.1 0.0
27/10:00pm 5.1 2.4 3.9 92 0.5 NNW 7 9 4 5 1033.9 1034.0 0.0
27/09:30pm 5.3 2.7 4.1 92 0.5 NNW 7 11 4 6 1034.0 1034.1 0.0
27/09:00pm 4.9 2.7 3.4 90 0.6 NNE 4 9 2 5 1034.0 1034.1 0.0
27/08:30pm 6.4 5.2 4.8 89 0.7 CALM 0 0 0 0 1034.0 1034.1 0.0
27/08:00pm 5.7 3.6 4.0 89 0.7 W 4 7 2 4 1034.0 1034.1 0.0
27/07:30pm 6.6 5.1 5.0 89 0.7 NNE 2 7 1 4 1033.8 1033.9 0.0
27/07:00pm 4.9 2.6 2.9 87 0.8 WSW 4 9 2 5 1033.7 1033.8 0.0
27/06:30pm 6.3 3.3 3.9 85 1.0 W 9 9 5 5 1033.2 1033.3 0.0
27/06:00pm 7.3 5.7 4.5 82 1.2 WSW 2 6 1 3 1033.0 1033.1 0.0
27/05:30pm 10.5 8.2 5.7 72 2.2 SW 7 7 4 4 1032.8 1032.9 0.0
27/05:00pm 11.3 9.2 5.9 69 2.5 SW 6 7 3 4 1032.8 1032.9 0.0
27/04:30pm 12.9 10.3 6.3 64 3.1 WSW 9 11 5 6 1032.7 1032.8 0.0
27/04:00pm 14.3 11.2 5.6 56 4.1 SSW 11 17 6 9 1032.6 1032.7 0.0
27/03:30pm 14.4 10.6 5.7 56 4.1 S 15 19 8 10 1032.5 1032.6 0.0
27/03:00pm 14.7 11.1 5.0 52 4.5 SSE 13 17 7 9 1032.4 1032.5 0.0

Latest Capital City Observations: Canberra | Sydney | Melbourne | Brisbane | Adelaide | Perth | Hobart | Darwin

Other Formats:

Comma delimited format used in spreadsheet applications
http://www.bom.gov.au/fwo/IDS60901/IDS60901.95818.axf

JavaScript Object Notation format (JSON) in row-major order
http://www.bom.gov.au/fwo/IDS60901/IDS60901.95818.json